PWSweather.com
Personal Weather Stations
Station Observations
SWHWX01
St AppolinardFR 38160

St AppolinardFR 38160

Lat: 45.191, Lon: 5.268

Elevation: 1460

Station Type: Davis Vantage Pro2 Plus

Latest ConditionsUpdated 11:30:04 PM GMT+01:01 Sunday, Jan 20, 2019
Currently Today's Max Today's Min Today's Average
Temperature 37.7°F3.2°C 45.7°F7.6°C 36.6°F2.6°C 40.1°F4.5°C
Dew Point 32.0°F0.0°C 35.7°F2.1°C 31.2°F-0.4°C 32.8°F0.4°C
Winds Calm Calm 4.5 mph -7.2 kmh - - 1.6 mph 2.6 kmh
Wind Gusts 1.0 mph1.6 kmh 6.0 mph9.7 kmh - -
Humidity 80% 82% 64% 75%
Pressure 29.98 in1015.2 mb 29.98 in1015.2 mb 29.86 in1011.2 mb -
Hour Temp Dew Point Humidity Winds Wind Gusts Pressure Precip Precip Rate Daily Precip Total
11:30 PM 37.7°F3.2°C 32.0°F0.0°C 80% Calm Calm 1.0 mph1.6 kmh 29.98 in1015.2 mb - 0.00 in0.0 mm 0.00 in0.0 mm
11:00 PM 37.6°F3.1°C 31.6°F-0.2°C 79% 0.8 mph NW1.3 kmh NW 2.0 mph3.2 kmh 29.97 in1014.9 mb - 0.00 in0.0 mm 0.00 in0.0 mm
10:30 PM 38.2°F3.4°C 31.9°F-0.1°C 78% 4.5 mph NW7.2 kmh NW 6.0 mph9.7 kmh 29.97 in1014.9 mb - 0.00 in0.0 mm 0.00 in0.0 mm
10:00 PM 38.6°F3.7°C 32.0°F0.0°C 77% 3.4 mph NW5.5 kmh NW 5.0 mph8.0 kmh 29.97 in1014.9 mb - 0.00 in0.0 mm 0.00 in0.0 mm
09:30 PM 39.7°F4.3°C 32.8°F0.4°C 76% 2.7 mph NW4.3 kmh NW 4.0 mph6.4 kmh 29.96 in1014.6 mb - 0.00 in0.0 mm 0.00 in0.0 mm
09:00 PM 40.3°F4.6°C 32.0°F0.0°C 72% 1.4 mph NW2.3 kmh NW 2.0 mph3.2 kmh 29.95 in1014.2 mb - 0.00 in0.0 mm 0.00 in0.0 mm
08:30 PM 40.6°F4.8°C 32.6°F0.3°C 73% 1.6 mph NW2.6 kmh NW 2.0 mph3.2 kmh 29.95 in1014.2 mb - 0.00 in0.0 mm 0.00 in0.0 mm
08:00 PM 39.9°F4.4°C 33.6°F0.9°C 78% 3.3 mph NW5.3 kmh NW 4.0 mph6.4 kmh 29.95 in1014.2 mb - 0.00 in0.0 mm 0.00 in0.0 mm
07:30 PM 39.6°F4.2°C 33.6°F0.9°C 79% 2.4 mph NW3.9 kmh NW 3.0 mph4.8 kmh 29.94 in1013.9 mb - 0.00 in0.0 mm 0.00 in0.0 mm
07:00 PM 40.3°F4.6°C 33.6°F0.9°C 77% 2.8 mph NW4.5 kmh NW 3.0 mph4.8 kmh 29.93 in1013.5 mb - 0.00 in0.0 mm 0.00 in0.0 mm
06:30 PM 41.4°F5.2°C 34.1°F1.2°C 75% 3.1 mph NW5.0 kmh NW 4.0 mph6.4 kmh 29.93 in1013.5 mb - 0.00 in0.0 mm 0.00 in0.0 mm
06:00 PM 41.9°F5.5°C 33.9°F1.1°C 73% 1.8 mph NW2.9 kmh NW 3.0 mph4.8 kmh 29.92 in1013.2 mb - 0.00 in0.0 mm 0.00 in0.0 mm
05:30 PM 42.6°F5.9°C 33.9°F1.1°C 71% 0.1 mph NW0.2 kmh NW 2.0 mph3.2 kmh 29.91 in1012.9 mb - 0.00 in0.0 mm 0.00 in0.0 mm
05:00 PM 43.4°F6.3°C 34.3°F1.3°C 70% 0.6 mph NW1.0 kmh NW 2.0 mph3.2 kmh 29.91 in1012.9 mb - 0.00 in0.0 mm 0.00 in0.0 mm
04:30 PM 43.4°F6.3°C 33.9°F1.1°C 69% Calm Calm 1.0 mph1.6 kmh 29.90 in1012.5 mb - 0.00 in0.0 mm 0.00 in0.0 mm
04:00 PM 44.0°F6.7°C 34.1°F1.2°C 68% 3.0 mph NW4.8 kmh NW 5.0 mph8.0 kmh 29.89 in1012.2 mb - 0.00 in0.0 mm 0.00 in0.0 mm
03:30 PM 44.5°F6.9°C 34.6°F1.4°C 68% 2.2 mph W3.5 kmh W 4.0 mph6.4 kmh 29.89 in1012.2 mb - 0.00 in0.0 mm 0.00 in0.0 mm
03:00 PM 45.7°F7.6°C 35.4°F1.9°C 67% 3.5 mph W5.6 kmh W 5.0 mph8.0 kmh 29.89 in1012.2 mb - 0.00 in0.0 mm 0.00 in0.0 mm
02:30 PM 45.6°F7.6°C 34.1°F1.2°C 64% 0.7 mph W1.1 kmh W 2.0 mph3.2 kmh 29.89 in1012.2 mb - 0.00 in0.0 mm 0.00 in0.0 mm
02:00 PM 45.5°F7.5°C 34.8°F1.6°C 66% 1.8 mph W2.9 kmh W 2.0 mph3.2 kmh 29.89 in1012.2 mb - 0.00 in0.0 mm 0.00 in0.0 mm
01:30 PM 44.9°F7.2°C 35.0°F1.7°C 68% 2.1 mph W3.4 kmh W 4.0 mph6.4 kmh 29.90 in1012.5 mb - 0.00 in0.0 mm 0.00 in0.0 mm
01:00 PM 43.8°F6.6°C 35.7°F2.1°C 73% 3.7 mph W6.0 kmh W 4.0 mph6.4 kmh 29.91 in1012.9 mb - 0.00 in0.0 mm 0.00 in0.0 mm
12:30 PM 43.8°F6.6°C 35.3°F1.8°C 72% 1.5 mph W2.4 kmh W 2.0 mph3.2 kmh 29.91 in1012.9 mb - 0.00 in0.0 mm 0.00 in0.0 mm
12:00 PM 41.9°F5.5°C 33.5°F0.8°C 72% 0.7 mph W1.1 kmh W 1.0 mph1.6 kmh 29.92 in1013.2 mb - 0.00 in0.0 mm 0.00 in0.0 mm
11:30 AM 40.8°F4.9°C 33.4°F0.8°C 75% 0.3 mph W0.5 kmh W 1.0 mph1.6 kmh 29.92 in1013.2 mb - 0.00 in0.0 mm 0.00 in0.0 mm
11:00 AM 39.4°F4.1°C 34.1°F1.2°C 81% Calm Calm -- 29.92 in1013.2 mb - 0.00 in0.0 mm 0.00 in0.0 mm
10:30 AM 38.5°F3.6°C 33.2°F0.7°C 81% Calm Calm -- 29.91 in1012.9 mb - 0.00 in0.0 mm 0.00 in0.0 mm
10:00 AM 37.1°F2.8°C 31.8°F-0.1°C 81% Calm Calm -- 29.91 in1012.9 mb - 0.00 in0.0 mm 0.00 in0.0 mm
09:30 AM 38.4°F3.6°C 32.1°F0.1°C 78% Calm Calm -- 29.91 in1012.9 mb - 0.00 in0.0 mm 0.00 in0.0 mm
09:00 AM 39.1°F3.9°C 32.1°F0.1°C 76% 1.5 mph W2.4 kmh W 2.0 mph3.2 kmh 29.90 in1012.5 mb - 0.00 in0.0 mm 0.00 in0.0 mm
08:30 AM 38.0°F3.3°C 31.8°F-0.1°C 78% 1.9 mph WNW3.1 kmh WNW 2.0 mph3.2 kmh 29.89 in1012.2 mb - 0.00 in0.0 mm 0.00 in0.0 mm
08:00 AM 37.1°F2.8°C 31.5°F-0.3°C 80% 2.5 mph WNW4.0 kmh WNW 3.0 mph4.8 kmh 29.88 in1011.9 mb - 0.00 in0.0 mm 0.00 in0.0 mm
07:30 AM 36.6°F2.6°C 31.3°F-0.4°C 81% 1.2 mph WNW1.9 kmh WNW 2.0 mph3.2 kmh 29.88 in1011.9 mb - 0.00 in0.0 mm 0.00 in0.0 mm
07:00 AM 36.6°F2.6°C 31.6°F-0.2°C 82% Calm Calm -- 29.87 in1011.5 mb - 0.00 in0.0 mm 0.00 in0.0 mm
06:30 AM 37.0°F2.8°C 31.7°F-0.2°C 81% Calm Calm -- 29.86 in1011.2 mb - 0.00 in0.0 mm 0.00 in0.0 mm
06:00 AM 37.8°F3.2°C 31.8°F-0.1°C 79% Calm Calm -- 29.86 in1011.2 mb - 0.00 in0.0 mm 0.00 in0.0 mm
05:30 AM 38.1°F3.4°C 32.2°F0.1°C 79% 3.0 mph WNW4.8 kmh WNW 4.0 mph6.4 kmh 29.86 in1011.2 mb - 0.00 in0.0 mm 0.00 in0.0 mm
05:00 AM 38.3°F3.5°C 32.4°F0.2°C 79% 2.3 mph WNW3.7 kmh WNW 3.0 mph4.8 kmh 29.87 in1011.5 mb - 0.00 in0.0 mm 0.00 in0.0 mm
04:30 AM 38.4°F3.6°C 32.1°F0.1°C 78% 2.7 mph WNW4.3 kmh WNW 4.0 mph6.4 kmh 29.87 in1011.5 mb - 0.00 in0.0 mm 0.00 in0.0 mm
04:00 AM 38.3°F3.5°C 32.0°F0.0°C 78% 2.9 mph WNW4.7 kmh WNW 4.0 mph6.4 kmh 29.88 in1011.9 mb - 0.00 in0.0 mm 0.00 in0.0 mm
03:30 AM 37.7°F3.2°C 31.8°F-0.1°C 79% 1.8 mph WNW2.9 kmh WNW 2.0 mph3.2 kmh 29.89 in1012.2 mb - 0.00 in0.0 mm 0.00 in0.0 mm
03:00 AM 37.3°F2.9°C 31.4°F-0.3°C 79% Calm Calm -- 29.89 in1012.2 mb - 0.00 in0.0 mm 0.00 in0.0 mm
02:30 AM 38.0°F3.3°C 31.7°F-0.2°C 78% 1.5 mph WNW2.4 kmh WNW 4.0 mph6.4 kmh 29.88 in1011.9 mb - 0.00 in0.0 mm 0.00 in0.0 mm
02:00 AM 39.0°F3.9°C 31.4°F-0.3°C 74% 3.0 mph WNW4.8 kmh WNW 4.0 mph6.4 kmh 29.89 in1012.2 mb - 0.00 in0.0 mm 0.00 in0.0 mm
01:30 AM 39.7°F4.3°C 31.4°F-0.3°C 72% 2.1 mph WNW3.4 kmh WNW 3.0 mph4.8 kmh 29.89 in1012.2 mb - 0.00 in0.0 mm 0.00 in0.0 mm
01:00 AM 39.5°F4.2°C 31.2°F-0.4°C 72% 0.3 mph WNW0.5 kmh WNW 1.0 mph1.6 kmh 29.89 in1012.2 mb - 0.00 in0.0 mm 0.00 in0.0 mm
12:30 AM 38.5°F3.6°C 31.6°F-0.2°C 76% 1.4 mph WNW2.3 kmh WNW 2.0 mph3.2 kmh 29.90 in1012.5 mb - 0.00 in0.0 mm 0.00 in0.0 mm
12:00 AM 40.1°F4.5°C 32.1°F0.1°C 73% Calm Calm -- 29.90 in1012.5 mb - 0.00 in0.0 mm 0.00 in0.0 mm